Time;durP1;ratioP1;P1;durP2;ratioP2;P2;SDS_P1;SDS_P2;PMS_P1;PMS_P2;Temp;Humidity;BMP_temperature;BMP_pressure;BME280_temperature;BME280_humidity;BME280_pressure;Samples;Min_cycle;Max_cycle;Signal;HPM_P1;HPM_P2
2023/12/14 00:01:16;;;;;;;;;;;;;;;;;;4166756;28;20019;-63
2023/12/14 00:03:21;;;;;;;;;;;;;;;;;;4162063;28;19926;-63
2023/12/14 00:05:23;;;;;;;;;;;;;;;;;;4181016;28;19925;-63
2023/12/14 00:07:24;;;;;;;;;;;;;;;;;;4181768;28;19931;-62
2023/12/14 00:09:26;;;;;;;;;;;;;;;;;;4193840;28;19948;-61
2023/12/14 00:11:27;;;;;;;;;;;;;;;;;;4198096;28;20368;-62
2023/12/14 00:13:29;;;;;;;;;;;;;;;;;;4198037;28;19924;-61
2023/12/14 00:15:30;;;;;;;;;;;;;;;;;;4197834;28;19978;-61
2023/12/14 00:17:32;;;;;;;;;;;;;;;;;;4198188;28;19925;-61
2023/12/14 00:19:33;;;;;;;;;;;;;;;;;;4197856;28;19978;-61
2023/12/14 00:21:35;;;;;;;;;;;;;;;;;;4198044;28;19990;-61
2023/12/14 00:23:36;;;;;;;;;;;;;;;;;;4196569;28;19987;-61
2023/12/14 00:25:37;;;;;;;;;;;;;;;;;;4177359;28;20403;-61
2023/12/14 00:27:39;;;;;;;;;;;;;;;;;;4164776;28;19929;-61
2023/12/14 00:29:40;;;;;;;;;;;;;;;;;;4164610;28;19936;-62
2023/12/14 00:31:42;;;;;;;;;;;;;;;;;;4165020;28;19925;-62
2023/12/14 00:33:44;;;;;;;;;;;;;;;;;;4164742;28;20336;-62
2023/12/14 00:35:46;;;;;;;;;;;;;;;;;;4179917;28;20040;-62
2023/12/14 00:37:47;;;;;;;;;;;;;;;;;;4164619;28;19925;-61
2023/12/14 00:39:49;;;;;;;;;;;;;;;;;;4179941;28;20388;-62
2023/12/14 00:41:50;;;;;;;;;;;;;;;;;;4164610;28;19925;-62
2023/12/14 00:43:52;;;;;;;;;;;;;;;;;;4180119;28;19932;-62
2023/12/14 00:45:54;;;;;;;;;;;;;;;;;;4164636;28;19929;-61
2023/12/14 00:47:55;;;;;;;;;;;;;;;;;;4182766;28;20273;-62
2023/12/14 00:49:57;;;;;;;;;;;;;;;;;;4184493;28;19924;-61
2023/12/14 00:51:58;;;;;;;;;;;;;;;;;;4187326;28;20327;-62
2023/12/14 00:54:00;;;;;;;;;;;;;;;;;;4200998;28;19939;-62
2023/12/14 00:56:01;;;;;;;;;;;;;;;;;;4201227;28;19925;-62
2023/12/14 00:58:03;;;;;;;;;;;;;;;;;;4183913;28;20289;-62
2023/12/14 01:00:10;;;;;;;;;;;;;;;;;;4184328;28;19924;-62
2023/12/14 01:02:14;;;;;;;;;;;;;;;;;;4182521;28;20280;-62
2023/12/14 01:04:15;;;;;;;;;;;;;;;;;;4166176;28;19929;-62
2023/12/14 01:06:16;;;;;;;;;;;;;;;;;;4183110;28;20523;-62
2023/12/14 01:08:18;;;;;;;;;;;;;;;;;;4186784;28;19924;-61
2023/12/14 01:10:19;;;;;;;;;;;;;;;;;;4200277;28;20054;-61
2023/12/14 01:12:21;;;;;;;;;;;;;;;;;;4200187;28;19938;-62
2023/12/14 01:14:23;;;;;;;;;;;;;;;;;;4200038;28;19942;-62
2023/12/14 01:16:24;;;;;;;;;;;;;;;;;;4200757;28;19925;-62
2023/12/14 01:18:26;;;;;;;;;;;;;;;;;;4201132;28;20124;-62
2023/12/14 01:20:29;;;;;;;;;;;;;;;;;;4198382;28;20465;-62
2023/12/14 01:22:30;;;;;;;;;;;;;;;;;;4184093;28;19931;-61
2023/12/14 01:24:32;;;;;;;;;;;;;;;;;;4184359;28;19948;-61
2023/12/14 01:26:34;;;;;;;;;;;;;;;;;;4183890;28;19959;-62
2023/12/14 01:28:35;;;;;;;;;;;;;;;;;;4183866;28;19925;-61
2023/12/14 01:30:37;;;;;;;;;;;;;;;;;;4183734;28;20419;-61
2023/12/14 01:32:38;;;;;;;;;;;;;;;;;;4182337;28;20434;-62
2023/12/14 01:34:40;;;;;;;;;;;;;;;;;;4183670;28;19932;-62
2023/12/14 01:36:41;;;;;;;;;;;;;;;;;;4183920;28;19925;-62
2023/12/14 01:38:43;;;;;;;;;;;;;;;;;;4183816;28;19929;-62
2023/12/14 01:40:44;;;;;;;;;;;;;;;;;;4183585;28;19929;-62
2023/12/14 01:42:46;;;;;;;;;;;;;;;;;;4149514;28;20454;-61
2023/12/14 01:44:47;;;;;;;;;;;;;;;;;;4183505;28;20285;-61
2023/12/14 01:46:49;;;;;;;;;;;;;;;;;;4183488;28;20012;-61
2023/12/14 01:48:51;;;;;;;;;;;;;;;;;;4183727;28;19955;-61
2023/12/14 01:50:53;;;;;;;;;;;;;;;;;;4183427;28;19935;-62
2023/12/14 01:52:54;;;;;;;;;;;;;;;;;;4176098;28;20789;-61
2023/12/14 01:54:58;;;;;;;;;;;;;;;;;;4199966;28;19931;-61
2023/12/14 01:57:00;;;;;;;;;;;;;;;;;;4200055;28;20391;-61
2023/12/14 01:59:01;;;;;;;;;;;;;;;;;;4197929;28;19925;-61
2023/12/14 02:01:03;;;;;;;;;;;;;;;;;;4190690;28;19929;-62
2023/12/14 02:03:04;;;;;;;;;;;;;;;;;;4181215;28;19955;-62
2023/12/14 02:05:06;;;;;;;;;;;;;;;;;;4183548;28;19935;-62
2023/12/14 02:07:08;;;;;;;;;;;;;;;;;;4183573;28;19933;-62
2023/12/14 02:09:09;;;;;;;;;;;;;;;;;;4193391;28;20315;-62
2023/12/14 02:11:11;;;;;;;;;;;;;;;;;;4199775;28;19928;-62
2023/12/14 02:13:13;;;;;;;;;;;;;;;;;;4199872;28;20414;-62
2023/12/14 02:15:14;;;;;;;;;;;;;;;;;;4200024;28;20382;-62
2023/12/14 02:17:16;;;;;;;;;;;;;;;;;;4192977;28;19929;-62
2023/12/14 02:19:17;;;;;;;;;;;;;;;;;;4165643;28;19933;-62
2023/12/14 02:21:19;;;;;;;;;;;;;;;;;;4166460;28;19929;-62
2023/12/14 02:23:20;;;;;;;;;;;;;;;;;;4166760;28;20723;-62
2023/12/14 02:25:22;;;;;;;;;;;;;;;;;;4166527;28;19929;-62
2023/12/14 02:27:23;;;;;;;;;;;;;;;;;;4148865;28;20357;-61
2023/12/14 02:29:25;;;;;;;;;;;;;;;;;;4165602;28;19956;-61
2023/12/14 02:31:26;;;;;;;;;;;;;;;;;;4166746;28;20334;-62
2023/12/14 02:33:28;;;;;;;;;;;;;;;;;;4166509;28;20435;-62
2023/12/14 02:35:29;;;;;;;;;;;;;;;;;;4166390;28;19977;-62
2023/12/14 02:37:31;;;;;;;;;;;;;;;;;;4174463;28;19925;-63
2023/12/14 02:39:33;;;;;;;;;;;;;;;;;;4181992;28;20023;-62
2023/12/14 02:41:37;;;;;;;;;;;;;;;;;;4182835;28;19924;-62
2023/12/14 02:43:40;;;;;;;;;;;;;;;;;;4182763;28;19933;-61
2023/12/14 02:45:41;;;;;;;;;;;;;;;;;;4182611;28;19931;-62
2023/12/14 02:47:43;;;;;;;;;;;;;;;;;;4182499;28;20389;-61
2023/12/14 02:49:44;;;;;;;;;;;;;;;;;;4182707;28;20443;-62
2023/12/14 02:51:46;;;;;;;;;;;;;;;;;;4149220;28;19926;-62
2023/12/14 02:53:47;;;;;;;;;;;;;;;;;;4199006;28;19974;-61
2023/12/14 02:55:49;;;;;;;;;;;;;;;;;;4198837;28;19982;-62
2023/12/14 02:57:50;;;;;;;;;;;;;;;;;;4199075;28;19928;-62
2023/12/14 02:59:52;;;;;;;;;;;;;;;;;;4199272;28;19986;-62
2023/12/14 03:01:53;;;;;;;;;;;;;;;;;;4198520;28;19940;-63
2023/12/14 03:03:55;;;;;;;;;;;;;;;;;;4194836;28;19928;-61
2023/12/14 03:05:56;;;;;;;;;;;;;;;;;;4182318;28;19979;-61
2023/12/14 03:07:58;;;;;;;;;;;;;;;;;;4182899;28;19932;-62
2023/12/14 03:10:00;;;;;;;;;;;;;;;;;;4198754;28;19935;-62
2023/12/14 03:12:01;;;;;;;;;;;;;;;;;;4180962;28;20011;-62
2023/12/14 03:14:03;;;;;;;;;;;;;;;;;;4175271;28;20408;-62
2023/12/14 03:16:04;;;;;;;;;;;;;;;;;;4165624;28;19947;-62
2023/12/14 03:18:06;;;;;;;;;;;;;;;;;;4165937;28;20380;-62
2023/12/14 03:20:07;;;;;;;;;;;;;;;;;;4165871;28;19932;-62
2023/12/14 03:22:09;;;;;;;;;;;;;;;;;;4165846;28;20297;-62
2023/12/14 03:24:11;;;;;;;;;;;;;;;;;;4165754;28;19925;-62
2023/12/14 03:26:12;;;;;;;;;;;;;;;;;;4165702;28;19932;-62
2023/12/14 03:28:14;;;;;;;;;;;;;;;;;;4165752;28;19925;-62
2023/12/14 03:30:15;;;;;;;;;;;;;;;;;;4147480;28;19930;-62
2023/12/14 03:32:17;;;;;;;;;;;;;;;;;;4165552;28;19925;-62
2023/12/14 03:34:18;;;;;;;;;;;;;;;;;;4165288;28;19935;-62
2023/12/14 03:36:22;;;;;;;;;;;;;;;;;;4178583;28;20403;-62
2023/12/14 03:38:23;;;;;;;;;;;;;;;;;;4181718;28;19925;-62
2023/12/14 03:40:25;;;;;;;;;;;;;;;;;;4164056;28;20316;-62
2023/12/14 03:42:26;;;;;;;;;;;;;;;;;;4164363;28;20047;-61
2023/12/14 03:44:28;;;;;;;;;;;;;;;;;;4180546;28;19933;-62
2023/12/14 03:46:29;;;;;;;;;;;;;;;;;;4181643;28;19971;-61
2023/12/14 03:48:31;;;;;;;;;;;;;;;;;;4181878;28;19955;-61
2023/12/14 03:50:33;;;;;;;;;;;;;;;;;;4181869;28;20399;-62
2023/12/14 03:52:35;;;;;;;;;;;;;;;;;;4189222;28;19928;-62
2023/12/14 03:54:36;;;;;;;;;;;;;;;;;;4198271;28;20022;-62
2023/12/14 03:56:38;;;;;;;;;;;;;;;;;;4198183;28;19935;-62
2023/12/14 03:58:39;;;;;;;;;;;;;;;;;;4198199;28;19928;-62
2023/12/14 04:00:41;;;;;;;;;;;;;;;;;;4179902;28;19924;-62
2023/12/14 04:02:42;;;;;;;;;;;;;;;;;;4197826;28;20010;-61
2023/12/14 04:04:46;;;;;;;;;;;;;;;;;;4187094;28;19978;-62
2023/12/14 04:06:48;;;;;;;;;;;;;;;;;;4181411;28;19952;-61
2023/12/14 04:08:50;;;;;;;;;;;;;;;;;;4171446;28;19924;-61
2023/12/14 04:10:51;;;;;;;;;;;;;;;;;;4173774;28;20400;-62
2023/12/14 04:12:53;;;;;;;;;;;;;;;;;;4181046;28;19933;-62
2023/12/14 04:14:54;;;;;;;;;;;;;;;;;;4181300;28;19978;-62
2023/12/14 04:16:56;;;;;;;;;;;;;;;;;;4163959;28;20015;-61
2023/12/14 04:18:57;;;;;;;;;;;;;;;;;;4181546;28;19995;-61
2023/12/14 04:20:59;;;;;;;;;;;;;;;;;;4163468;28;19936;-61
2023/12/14 04:23:00;;;;;;;;;;;;;;;;;;4180933;28;19929;-62
2023/12/14 04:25:02;;;;;;;;;;;;;;;;;;4163883;28;19925;-61
2023/12/14 04:27:03;;;;;;;;;;;;;;;;;;4181383;28;19925;-62
2023/12/14 04:29:05;;;;;;;;;;;;;;;;;;4181371;28;20012;-62
2023/12/14 04:31:10;;;;;;;;;;;;;;;;;;4163558;28;20316;-62
2023/12/14 04:33:11;;;;;;;;;;;;;;;;;;4163344;28;20012;-62
2023/12/14 04:35:13;;;;;;;;;;;;;;;;;;4181052;28;20373;-62
2023/12/14 04:37:14;;;;;;;;;;;;;;;;;;4163352;28;19929;-62
2023/12/14 04:39:16;;;;;;;;;;;;;;;;;;4181089;28;20377;-61
2023/12/14 04:41:18;;;;;;;;;;;;;;;;;;4181574;28;19925;-61
2023/12/14 04:43:19;;;;;;;;;;;;;;;;;;4181283;28;19974;-62
2023/12/14 04:45:21;;;;;;;;;;;;;;;;;;4181027;28;20289;-62
2023/12/14 04:47:22;;;;;;;;;;;;;;;;;;4163730;28;19926;-61
2023/12/14 04:49:25;;;;;;;;;;;;;;;;;;4181142;28;20292;-62
2023/12/14 04:51:26;;;;;;;;;;;;;;;;;;4181441;28;19932;-61
2023/12/14 04:53:28;;;;;;;;;;;;;;;;;;4178366;28;19925;-62
2023/12/14 04:55:29;;;;;;;;;;;;;;;;;;4180003;28;19925;-62
2023/12/14 04:57:31;;;;;;;;;;;;;;;;;;4197371;28;20368;-62
2023/12/14 04:59:33;;;;;;;;;;;;;;;;;;4179355;28;19925;-62
2023/12/14 05:01:35;;;;;;;;;;;;;;;;;;4195530;28;19928;-61
2023/12/14 05:03:36;;;;;;;;;;;;;;;;;;4176488;28;19929;-62
2023/12/14 05:05:38;;;;;;;;;;;;;;;;;;4179596;28;19970;-61
2023/12/14 05:07:39;;;;;;;;;;;;;;;;;;4181021;28;19935;-61
2023/12/14 05:09:41;;;;;;;;;;;;;;;;;;4195540;28;19932;-62
2023/12/14 05:11:42;;;;;;;;;;;;;;;;;;4197677;28;19928;-61
2023/12/14 05:13:44;;;;;;;;;;;;;;;;;;4193879;28;19970;-61
2023/12/14 05:15:45;;;;;;;;;;;;;;;;;;4162979;28;20369;-62
2023/12/14 05:17:52;;;;;;;;;;;;;;;;;;4174818;28;19929;-61
2023/12/14 05:19:56;;;;;;;;;;;;;;;;;;4166562;28;19972;-61
2023/12/14 05:21:57;;;;;;;;;;;;;;;;;;4164462;28;19932;-62
2023/12/14 05:23:59;;;;;;;;;;;;;;;;;;4167277;28;19925;-62
2023/12/14 05:26:00;;;;;;;;;;;;;;;;;;4181013;28;19940;-61
2023/12/14 05:28:02;;;;;;;;;;;;;;;;;;4180838;28;19932;-61
2023/12/14 05:30:03;;;;;;;;;;;;;;;;;;4180856;28;19936;-62
2023/12/14 05:32:05;;;;;;;;;;;;;;;;;;4180958;28;19968;-61
2023/12/14 05:34:07;;;;;;;;;;;;;;;;;;4182747;28;20129;-61
2023/12/14 05:36:10;;;;;;;;;;;;;;;;;;4183794;28;19924;-62
2023/12/14 05:38:15;;;;;;;;;;;;;;;;;;4183972;28;19925;-62
2023/12/14 05:40:17;;;;;;;;;;;;;;;;;;4179699;28;20482;-61
2023/12/14 05:42:21;;;;;;;;;;;;;;;;;;4175942;28;20405;-61
2023/12/14 05:44:23;;;;;;;;;;;;;;;;;;4166665;28;19929;-61
2023/12/14 05:46:24;;;;;;;;;;;;;;;;;;4176886;28;19924;-61
2023/12/14 05:48:29;;;;;;;;;;;;;;;;;;4183647;28;19925;-61
2023/12/14 05:50:31;;;;;;;;;;;;;;;;;;4183645;28;20034;-61
2023/12/14 05:52:33;;;;;;;;;;;;;;;;;;4173256;28;19975;-61
2023/12/14 05:54:34;;;;;;;;;;;;;;;;;;4185785;28;19925;-61
2023/12/14 05:56:36;;;;;;;;;;;;;;;;;;4183357;28;20369;-62
2023/12/14 05:58:40;;;;;;;;;;;;;;;;;;4183435;28;19968;-61
2023/12/14 06:00:41;;;;;;;;;;;;;;;;;;4183518;28;19924;-62
2023/12/14 06:02:43;;;;;;;;;;;;;;;;;;4179823;28;19929;-62
2023/12/14 06:04:46;;;;;;;;;;;;;;;;;;4177568;28;19932;-62
2023/12/14 06:06:47;;;;;;;;;;;;;;;;;;4183407;28;19924;-62
2023/12/14 06:08:49;;;;;;;;;;;;;;;;;;4190609;28;20384;-62
2023/12/14 06:10:50;;;;;;;;;;;;;;;;;;4199834;28;20269;-62
2023/12/14 06:12:52;;;;;;;;;;;;;;;;;;4196957;28;20372;-62
2023/12/14 06:14:53;;;;;;;;;;;;;;;;;;4182968;28;20383;-62
2023/12/14 06:16:55;;;;;;;;;;;;;;;;;;4183058;28;20460;-62
2023/12/14 06:18:56;;;;;;;;;;;;;;;;;;4165138;28;19926;-61
2023/12/14 06:20:58;;;;;;;;;;;;;;;;;;4182776;28;19955;-62
2023/12/14 06:23:00;;;;;;;;;;;;;;;;;;4183244;28;20409;-62
2023/12/14 06:25:03;;;;;;;;;;;;;;;;;;4181664;28;20019;-62
2023/12/14 06:27:05;;;;;;;;;;;;;;;;;;4179042;28;20408;-62
2023/12/14 06:29:06;;;;;;;;;;;;;;;;;;4167935;28;19925;-62
2023/12/14 06:31:08;;;;;;;;;;;;;;;;;;4148879;28;20365;-62
2023/12/14 06:33:10;;;;;;;;;;;;;;;;;;4172066;28;19925;-62
2023/12/14 06:35:12;;;;;;;;;;;;;;;;;;4179453;28;19940;-62
2023/12/14 06:37:14;;;;;;;;;;;;;;;;;;4182837;28;19931;-62
2023/12/14 06:39:16;;;;;;;;;;;;;;;;;;4182663;28;19932;-62
2023/12/14 06:41:20;;;;;;;;;;;;;;;;;;4175515;28;19933;-69
2023/12/14 06:43:22;;;;;;;;;;;;;;;;;;4167014;28;19929;-70
2023/12/14 06:45:23;;;;;;;;;;;;;;;;;;4164380;28;20297;-70
2023/12/14 06:47:25;;;;;;;;;;;;;;;;;;4165184;28;19929;-70
2023/12/14 06:49:27;;;;;;;;;;;;;;;;;;4178071;28;20337;-69
2023/12/14 06:51:29;;;;;;;;;;;;;;;;;;4182820;28;19924;-68
2023/12/14 06:53:30;;;;;;;;;;;;;;;;;;4197143;28;19929;-69
2023/12/14 06:55:32;;;;;;;;;;;;;;;;;;4164671;28;19948;-69
2023/12/14 06:57:33;;;;;;;;;;;;;;;;;;4199205;28;20414;-71
2023/12/14 06:59:35;;;;;;;;;;;;;;;;;;4175753;28;19925;-69
2023/12/14 07:01:36;;;;;;;;;;;;;;;;;;4164689;28;19926;-69
2023/12/14 07:03:38;;;;;;;;;;;;;;;;;;4167800;28;19929;-69
2023/12/14 07:05:39;;;;;;;;;;;;;;;;;;4182335;28;19931;-69
2023/12/14 07:07:41;;;;;;;;;;;;;;;;;;4182617;28;19929;-69
2023/12/14 07:09:44;;;;;;;;;;;;;;;;;;4197013;28;19924;-69
2023/12/14 07:11:46;;;;;;;;;;;;;;;;;;4198979;28;19960;-68
2023/12/14 07:13:48;;;;;;;;;;;;;;;;;;4197385;28;20358;-68
2023/12/14 07:15:49;;;;;;;;;;;;;;;;;;4198681;28;19925;-68
2023/12/14 07:17:51;;;;;;;;;;;;;;;;;;4198929;28;20295;-68
2023/12/14 07:19:53;;;;;;;;;;;;;;;;;;4179358;28;19933;-68
2023/12/14 07:21:57;;;;;;;;;;;;;;;;;;4182148;28;19925;-68
2023/12/14 07:23:59;;;;;;;;;;;;;;;;;;4180610;28;20372;-68
2023/12/14 07:26:00;;;;;;;;;;;;;;;;;;4181894;28;20442;-69
2023/12/14 07:28:03;;;;;;;;;;;;;;;;;;4181021;28;19979;-69
2023/12/14 07:30:05;;;;;;;;;;;;;;;;;;4181912;28;19978;-68
2023/12/14 07:32:06;;;;;;;;;;;;;;;;;;4181920;28;20019;-69
2023/12/14 07:34:08;;;;;;;;;;;;;;;;;;4182178;28;19932;-69
2023/12/14 07:36:09;;;;;;;;;;;;;;;;;;4181836;28;20017;-68
2023/12/14 07:38:11;;;;;;;;;;;;;;;;;;4180724;28;19978;-68
2023/12/14 07:40:12;;;;;;;;;;;;;;;;;;4180630;28;19968;-68
2023/12/14 07:42:19;;;;;;;;;;;;;;;;;;4182059;28;20316;-68
2023/12/14 07:44:21;;;;;;;;;;;;;;;;;;4182075;28;19929;-68
2023/12/14 07:46:23;;;;;;;;;;;;;;;;;;4181691;28;19975;-70
2023/12/14 07:48:24;;;;;;;;;;;;;;;;;;4181758;28;20510;-69
2023/12/14 07:50:26;;;;;;;;;;;;;;;;;;4181476;28;19970;-69
2023/12/14 07:52:28;;;;;;;;;;;;;;;;;;4188248;28;20295;-69
2023/12/14 07:54:29;;;;;;;;;;;;;;;;;;4192592;28;20023;-69
2023/12/14 07:56:32;;;;;;;;;;;;;;;;;;4167286;28;20317;-69
2023/12/14 07:58:34;;;;;;;;;;;;;;;;;;4180271;28;20395;-69
2023/12/14 08:00:35;;;;;;;;;;;;;;;;;;4165121;28;20051;-70
2023/12/14 08:02:37;;;;;;;;;;;;;;;;;;4179983;28;20300;-70
2023/12/14 08:04:38;;;;;;;;;;;;;;;;;;4173584;28;19924;-70
2023/12/14 08:06:40;;;;;;;;;;;;;;;;;;4181474;28;20016;-69
2023/12/14 08:08:42;;;;;;;;;;;;;;;;;;4186527;28;20031;-69
2023/12/14 08:10:46;;;;;;;;;;;;;;;;;;4198132;28;19924;-69
2023/12/14 08:12:47;;;;;;;;;;;;;;;;;;4196704;28;20443;-68
2023/12/14 08:14:51;;;;;;;;;;;;;;;;;;4196567;28;19958;-69
2023/12/14 08:16:53;;;;;;;;;;;;;;;;;;4189910;28;19979;-69
2023/12/14 08:18:55;;;;;;;;;;;;;;;;;;4180149;28;19974;-69
2023/12/14 08:20:56;;;;;;;;;;;;;;;;;;4181333;28;20019;-69
2023/12/14 08:22:58;;;;;;;;;;;;;;;;;;4181440;28;19987;-69
2023/12/14 08:25:00;;;;;;;;;;;;;;;;;;4181333;28;20210;-69
2023/12/14 08:27:01;;;;;;;;;;;;;;;;;;4181127;28;19935;-69
2023/12/14 08:29:03;;;;;;;;;;;;;;;;;;4179988;28;19929;-69
2023/12/14 08:31:04;;;;;;;;;;;;;;;;;;4181267;28;19925;-69
2023/12/14 08:33:06;;;;;;;;;;;;;;;;;;4181145;28;19990;-69
2023/12/14 08:35:07;;;;;;;;;;;;;;;;;;4180132;28;19925;-69
2023/12/14 08:37:09;;;;;;;;;;;;;;;;;;4179768;28;20051;-69
2023/12/14 08:39:10;;;;;;;;;;;;;;;;;;4181413;28;20039;-69
2023/12/14 08:41:12;;;;;;;;;;;;;;;;;;4180992;28;19924;-68
2023/12/14 08:43:14;;;;;;;;;;;;;;;;;;4181030;28;19931;-69
2023/12/14 08:45:15;;;;;;;;;;;;;;;;;;4180973;28;19967;-69
2023/12/14 08:47:19;;;;;;;;;;;;;;;;;;4181542;28;20016;-68
2023/12/14 08:49:23;;;;;;;;;;;;;;;;;;4179745;28;19987;-68
2023/12/14 08:51:26;;;;;;;;;;;;;;;;;;4178232;28;20023;-69
2023/12/14 08:53:29;;;;;;;;;;;;;;;;;;4194260;28;19925;-69
2023/12/14 08:55:31;;;;;;;;;;;;;;;;;;4179708;28;19954;-70
2023/12/14 08:57:33;;;;;;;;;;;;;;;;;;4197821;28;19924;-69
2023/12/14 08:59:34;;;;;;;;;;;;;;;;;;4197573;28;19973;-69
2023/12/14 09:01:36;;;;;;;;;;;;;;;;;;4197241;28;19924;-70
2023/12/14 09:03:37;;;;;;;;;;;;;;;;;;4177977;28;19932;-69
2023/12/14 09:05:42;;;;;;;;;;;;;;;;;;4163209;28;19931;-68
2023/12/14 09:07:43;;;;;;;;;;;;;;;;;;4164457;28;19925;-70
2023/12/14 09:09:45;;;;;;;;;;;;;;;;;;4197965;28;20295;-69
2023/12/14 09:11:47;;;;;;;;;;;;;;;;;;4166377;28;19980;-69
2023/12/14 09:13:48;;;;;;;;;;;;;;;;;;4169521;28;19925;-69
2023/12/14 09:15:52;;;;;;;;;;;;;;;;;;4184096;28;19929;-70
2023/12/14 09:17:54;;;;;;;;;;;;;;;;;;4183937;28;19928;-70
2023/12/14 09:19:56;;;;;;;;;;;;;;;;;;4184002;28;19929;-69
2023/12/14 09:21:57;;;;;;;;;;;;;;;;;;4166397;28;19925;-70
2023/12/14 09:23:59;;;;;;;;;;;;;;;;;;4183897;28;19994;-70
2023/12/14 09:26:00;;;;;;;;;;;;;;;;;;4184073;28;19959;-70
2023/12/14 09:28:02;;;;;;;;;;;;;;;;;;4183828;28;19974;-71
2023/12/14 09:30:04;;;;;;;;;;;;;;;;;;4183801;28;19924;-71
2023/12/14 09:32:06;;;;;;;;;;;;;;;;;;4183994;28;19929;-76
2023/12/14 09:34:07;;;;;;;;;;;;;;;;;;4183749;28;20315;-76
2023/12/14 09:36:09;;;;;;;;;;;;;;;;;;4183982;28;19931;-75
2023/12/14 09:38:13;;;;;;;;;;;;;;;;;;4166091;28;19933;-76
2023/12/14 09:40:16;;;;;;;;;;;;;;;;;;4183724;28;19928;-75
2023/12/14 09:42:18;;;;;;;;;;;;;;;;;;4165939;28;19925;-76
2023/12/14 09:44:19;;;;;;;;;;;;;;;;;;4183794;28;19929;-77
2023/12/14 09:46:21;;;;;;;;;;;;;;;;;;4165790;28;19960;-76
2023/12/14 09:48:23;;;;;;;;;;;;;;;;;;4157426;28;19933;-77
2023/12/14 09:50:25;;;;;;;;;;;;;;;;;;4167252;28;19925;-77
2023/12/14 09:52:26;;;;;;;;;;;;;;;;;;4179774;28;19972;-77
2023/12/14 09:54:28;;;;;;;;;;;;;;;;;;4182293;28;19932;-78
2023/12/14 09:56:30;;;;;;;;;;;;;;;;;;4182313;28;19929;-76
2023/12/14 09:58:32;;;;;;;;;;;;;;;;;;4200217;28;20376;-79
2023/12/14 10:00:34;;;;;;;;;;;;;;;;;;4199765;28;19970;-76
2023/12/14 10:02:35;;;;;;;;;;;;;;;;;;4190383;28;19924;-76
2023/12/14 10:04:37;;;;;;;;;;;;;;;;;;4190210;28;19924;-76
2023/12/14 10:06:38;;;;;;;;;;;;;;;;;;4182069;28;19931;-77
2023/12/14 10:08:40;;;;;;;;;;;;;;;;;;4186556;28;19924;-75
2023/12/14 10:10:42;;;;;;;;;;;;;;;;;;4183133;28;20307;-77
2023/12/14 10:12:43;;;;;;;;;;;;;;;;;;4183562;28;19932;-79
2023/12/14 10:14:45;;;;;;;;;;;;;;;;;;4183062;28;19925;-78
2023/12/14 10:16:46;;;;;;;;;;;;;;;;;;4183097;28;19935;-77
2023/12/14 10:18:48;;;;;;;;;;;;;;;;;;4183148;28;19928;-78
2023/12/14 10:20:49;;;;;;;;;;;;;;;;;;4182048;28;19924;-79
2023/12/14 10:22:51;;;;;;;;;;;;;;;;;;4183123;28;20384;-79
2023/12/14 10:24:52;;;;;;;;;;;;;;;;;;4183207;28;19935;-78
2023/12/14 10:26:54;;;;;;;;;;;;;;;;;;4182940;28;19951;-79
2023/12/14 10:28:55;;;;;;;;;;;;;;;;;;4181431;28;19928;-78
2023/12/14 10:30:57;;;;;;;;;;;;;;;;;;4181671;28;19970;-77
2023/12/14 10:32:59;;;;;;;;;;;;;;;;;;4183273;28;19924;-79
2023/12/14 10:35:00;;;;;;;;;;;;;;;;;;4183170;28;20021;-79
2023/12/14 10:37:03;;;;;;;;;;;;;;;;;;4182970;28;20304;-80
2023/12/14 10:39:08;;;;;;;;;;;;;;;;;;4182929;28;19933;-77
2023/12/14 10:41:10;;;;;;;;;;;;;;;;;;4182996;28;19936;-69
2023/12/14 10:43:12;;;;;;;;;;;;;;;;;;4183101;28;19929;-68
2023/12/14 10:45:16;;;;;;;;;;;;;;;;;;4182752;28;19928;-68
2023/12/14 10:47:20;;;;;;;;;;;;;;;;;;4183177;28;19974;-69
2023/12/14 10:49:21;;;;;;;;;;;;;;;;;;4182934;28;19925;-69
2023/12/14 10:51:23;;;;;;;;;;;;;;;;;;4182845;28;19925;-69
2023/12/14 10:53:25;;;;;;;;;;;;;;;;;;4197370;28;19974;-69
2023/12/14 10:55:27;;;;;;;;;;;;;;;;;;4199294;28;19970;-69
2023/12/14 10:57:40;;;;;;;;;;;;;;;;;;4199148;28;19929;-70
2023/12/14 10:59:44;;;;;;;;;;;;;;;;;;4199307;28;19929;-69
2023/12/14 11:01:47;;;;;;;;;;;;;;;;;;4198989;28;19964;-70
2023/12/14 11:03:50;;;;;;;;;;;;;;;;;;4195854;28;19955;-69
2023/12/14 11:05:51;;;;;;;;;;;;;;;;;;4164455;28;19925;-69
2023/12/14 11:08:00;;;;;;;;;;;;;;;;;;4175399;28;20365;-69
2023/12/14 11:10:03;;;;;;;;;;;;;;;;;;4179740;28;19928;-69
2023/12/14 11:12:05;;;;;;;;;;;;;;;;;;4179969;28;19964;-68
2023/12/14 11:14:06;;;;;;;;;;;;;;;;;;4171301;28;20306;-69
2023/12/14 11:16:08;;;;;;;;;;;;;;;;;;4174403;28;19925;-69
2023/12/14 11:18:09;;;;;;;;;;;;;;;;;;4174910;28;20057;-70
2023/12/14 11:20:12;;;;;;;;;;;;;;;;;;4177925;28;19964;-70
2023/12/14 11:22:15;;;;;;;;;;;;;;;;;;4180228;28;19924;-69
2023/12/14 11:24:16;;;;;;;;;;;;;;;;;;4175153;28;19925;-69
2023/12/14 11:26:18;;;;;;;;;;;;;;;;;;4180500;28;19994;-71
2023/12/14 11:28:19;;;;;;;;;;;;;;;;;;4175916;28;19925;-70
2023/12/14 11:30:21;;;;;;;;;;;;;;;;;;4168098;28;20365;-71
2023/12/14 11:32:23;;;;;;;;;;;;;;;;;;4179472;28;19990;-70
2023/12/14 11:34:24;;;;;;;;;;;;;;;;;;4178325;28;20368;-70
2023/12/14 11:36:26;;;;;;;;;;;;;;;;;;4180682;28;20020;-70
2023/12/14 11:38:27;;;;;;;;;;;;;;;;;;4179718;28;19932;-70
2023/12/14 11:40:29;;;;;;;;;;;;;;;;;;4181810;28;20039;-69
2023/12/14 11:42:31;;;;;;;;;;;;;;;;;;4180343;28;19979;-70
2023/12/14 11:44:33;;;;;;;;;;;;;;;;;;4173642;28;19925;-69
2023/12/14 11:46:36;;;;;;;;;;;;;;;;;;4176006;28;20364;-70
2023/12/14 11:48:37;;;;;;;;;;;;;;;;;;4176721;28;19925;-70
2023/12/14 11:50:39;;;;;;;;;;;;;;;;;;4180627;28;19928;-69
2023/12/14 11:52:44;;;;;;;;;;;;;;;;;;4167811;28;19967;-78
2023/12/14 11:54:46;;;;;;;;;;;;;;;;;;4180112;28;19925;-78
2023/12/14 11:56:47;;;;;;;;;;;;;;;;;;4164994;28;19948;-78
2023/12/14 11:58:49;;;;;;;;;;;;;;;;;;4164830;28;19975;-78
2023/12/14 12:00:50;;;;;;;;;;;;;;;;;;4174219;28;19924;-78
2023/12/14 12:02:52;;;;;;;;;;;;;;;;;;4179663;28;19939;-77
2023/12/14 12:04:54;;;;;;;;;;;;;;;;;;4181522;28;20019;-78
2023/12/14 12:06:55;;;;;;;;;;;;;;;;;;4181439;28;19932;-77
2023/12/14 12:08:58;;;;;;;;;;;;;;;;;;4189799;28;19931;-78
2023/12/14 12:11:02;;;;;;;;;;;;;;;;;;4176407;28;19939;-77
2023/12/14 12:13:07;;;;;;;;;;;;;;;;;;4172128;28;20296;-76
2023/12/14 12:15:09;;;;;;;;;;;;;;;;;;4164484;28;19925;-77
2023/12/14 12:17:10;;;;;;;;;;;;;;;;;;4171535;28;20292;-77
2023/12/14 12:19:12;;;;;;;;;;;;;;;;;;4168695;28;20309;-77
2023/12/14 12:21:13;;;;;;;;;;;;;;;;;;4172968;28;19925;-77
2023/12/14 12:23:16;;;;;;;;;;;;;;;;;;4167828;28;20415;-77
2023/12/14 12:25:18;;;;;;;;;;;;;;;;;;4167081;28;20286;-76
2023/12/14 12:27:22;;;;;;;;;;;;;;;;;;4166849;28;20008;-76
2023/12/14 12:29:24;;;;;;;;;;;;;;;;;;4163341;28;19935;-76
2023/12/14 12:31:25;;;;;;;;;;;;;;;;;;4164412;28;19925;-76
2023/12/14 12:33:27;;;;;;;;;;;;;;;;;;4164534;28;19926;-75
2023/12/14 12:35:30;;;;;;;;;;;;;;;;;;4166463;28;19929;-76
2023/12/14 12:37:32;;;;;;;;;;;;;;;;;;4169426;28;19959;-76
2023/12/14 12:39:34;;;;;;;;;;;;;;;;;;4170332;28;19925;-76
2023/12/14 12:41:38;;;;;;;;;;;;;;;;;;4164376;28;19931;-64
2023/12/14 12:43:40;;;;;;;;;;;;;;;;;;4164050;28;19926;-64
2023/12/14 12:45:41;;;;;;;;;;;;;;;;;;4164355;28;19948;-64
2023/12/14 12:47:43;;;;;;;;;;;;;;;;;;4164367;28;19956;-64
2023/12/14 12:49:44;;;;;;;;;;;;;;;;;;4164673;28;19933;-64
2023/12/14 12:51:47;;;;;;;;;;;;;;;;;;4166163;28;19925;-65
2023/12/14 12:53:49;;;;;;;;;;;;;;;;;;4171892;28;19929;-64
2023/12/14 12:55:51;;;;;;;;;;;;;;;;;;4172971;28;19967;-64
2023/12/14 12:57:53;;;;;;;;;;;;;;;;;;4180925;28;19935;-63
2023/12/14 12:59:54;;;;;;;;;;;;;;;;;;4170858;28;20020;-64
2023/12/14 13:01:55;;;;;;;;;;;;;;;;;;4164217;28;19975;-64
2023/12/14 13:03:58;;;;;;;;;;;;;;;;;;4168670;28;20012;-64
2023/12/14 13:05:59;;;;;;;;;;;;;;;;;;4180899;28;20019;-64
2023/12/14 13:08:01;;;;;;;;;;;;;;;;;;4181835;28;19932;-65
2023/12/14 13:10:03;;;;;;;;;;;;;;;;;;4179588;28;20399;-64
2023/12/14 13:12:15;;;;;;;;;;;;;;;;;;4181430;28;20012;-64
2023/12/14 13:14:17;;;;;;;;;;;;;;;;;;4197230;28;19973;-64
2023/12/14 13:16:18;;;;;;;;;;;;;;;;;;4196507;28;20307;-64
2023/12/14 13:18:20;;;;;;;;;;;;;;;;;;4197609;28;19929;-64
2023/12/14 13:20:22;;;;;;;;;;;;;;;;;;4197209;28;20304;-64
2023/12/14 13:22:23;;;;;;;;;;;;;;;;;;4197281;28;19928;-64
2023/12/14 13:24:27;;;;;;;;;;;;;;;;;;4196824;28;19924;-64
2023/12/14 13:26:28;;;;;;;;;;;;;;;;;;4197215;28;20265;-64
2023/12/14 13:28:30;;;;;;;;;;;;;;;;;;4197301;28;20019;-64
2023/12/14 13:30:31;;;;;;;;;;;;;;;;;;4197523;28;19931;-65
2023/12/14 13:32:33;;;;;;;;;;;;;;;;;;4181919;28;19932;-64
2023/12/14 13:34:34;;;;;;;;;;;;;;;;;;4164056;28;19932;-64
2023/12/14 13:36:36;;;;;;;;;;;;;;;;;;4172201;28;19929;-64
2023/12/14 13:38:37;;;;;;;;;;;;;;;;;;4172614;28;19929;-63
2023/12/14 13:40:39;;;;;;;;;;;;;;;;;;4176167;28;19928;-64
2023/12/14 13:42:41;;;;;;;;;;;;;;;;;;4180919;28;19979;-63
2023/12/14 13:44:51;;;;;;;;;;;;;;;;;;4174863;28;20304;-63
2023/12/14 13:46:52;;;;;;;;;;;;;;;;;;4170333;28;19929;-65
2023/12/14 13:48:54;;;;;;;;;;;;;;;;;;4174797;28;20758;-63
2023/12/14 13:50:56;;;;;;;;;;;;;;;;;;4171550;28;19956;-65
2023/12/14 13:52:57;;;;;;;;;;;;;;;;;;4183132;28;20372;-65